Airfield :
LOGIN :

Register | Disclaimer

   EN    FR    IT 

 










Legend :    VFR   Marginal VFR   IFR   Intensive IFR   Very Intensive IFR
Visi :
Ceiling :
>= 8 km
>= 3000ft
5 to 8 km
1000 to 3000 ft
1500m to 5 km
500 to 1000 ft
800 to 1500m
200 to 500 ft
< 800m
< 200 ft
Symbols :   Thunderstorms  Fog  Heavy snow  Heavy precipitations  Wind > 20 kt
SIGMETs :     Misc.  Thunderstorms  Icing  Turbulence  Mountain Waves  Volcanic Ashes






- Airport Elevation : 616 ft
- IATA code : PUF


LFBP - Pau

CURRENT METAR :
  • 212330Z AUTO VRB02KT 9999 OVC066/// 07/01 Q1022 NOSIG

EXPIRED METARs :
  • 212300Z AUTO VRB03KT 9999 BKN060/// BKN072/// 07/00 Q1022 NOSIG
  • 212230Z AUTO 05004KT 020V090 9999 FEW062/// 08/00 Q1022 NOSIG
  • 212200Z AUTO 04004KT 360V070 9999 FEW064 09/01 Q1022 NOSIG
  • 212130Z AUTO 02007KT CAVOK 10/01 Q1022 NOSIG
  • 212100Z AUTO 01006KT 340V040 CAVOK 10/01 Q1021 NOSIG
  • 212030Z AUTO 01006KT 330V100 CAVOK 11/02 Q1021 NOSIG
  • 212000Z AUTO 01007KT 330V040 CAVOK 11/01 Q1021 NOSIG
  • 211930Z AUTO 01006KT 9999 NCD 12/02 Q1020 NOSIG

TAF TAF LFBP
Valid from the 22 at 00:00 until the 23 at 00:00 UTC


212300Z 2200/2224 01008KT 9999 BKN065
TEMPO 2200/2207 VRB03KT
BECMG 2207/2209 SCT030
BECMG 2211/2213 SCT070
TEMPO 2221/2224 VRB03KT



MET'MAP, your aeronautical weather chart ! - Copyright ORBIFLY December 2007 - Disclaimer

ORBIFLY MET'MAP TEAM :

Programming & Development : Alexandra Zaïnal
Original concept : Baudouin d'Aumeries
Technical & hardware support : Manuel Goepfert
Assistance : Marc-Olivier Méhu




SOURCES & CREDITS :

   NOAA